Aérodrome :
LOGIN :

S'inscrire | Disclaimer

   EN    FR    IT 

 










Légende :    VFR   VFR Marginal   IFR   IFR Intensif   IFR Très Intensif
Visi : 
Plafond : 
>= 8 km
>= 3000ft
5 à 8 km
1000 à 3000 ft
1500m à 5 km
500 à 1000 ft
800 à 1500m
200 à 500 ft
< 800m
< 200 ft
Symboles :   Orages  Brouillard  Fortes neiges  Fortes précipitations  Vent > 20 kt
SIGMETs :   Divers  Orages  Givrage  Turbulence  Onde Orograph.  Cendres Volcan.






- Altitude de l'aérodrome : 1071 ft
- Code IATA : LWO


UKLL - L'viv

DERNIER METAR :
  • 221300Z 28007MPS 250V310 6000 -FZRA BKN006 BKN020CB M00/M01 Q1021 R31/290055 TEMPO 29010G17MPS 1400 FZRA BKN003 BKN017CB

METARs EXPIRÉS :
  • 221238Z 28010G15MPS 3500 -FZRA BR BKN006 BKN020CB M00/M01 Q1021 R31/290055 TEMPO 29013G22MPS 1400 SHSNRA BKN003 BKN017CB
  • 221230Z 28007MPS 3000 -SHRA BR BKN006 BKN020CB 00/00 Q1021 R31/290055 TEMPO 29013G22MPS 1400 SHSNRA BKN003 BKN017CB
  • 221210Z 29008MPS 5000 -SHRASN BKN009 BKN020CB 00/M01 Q1021 R31/290055 TEMPO 29013G22MPS 1400 SHSNRA BKN003 BKN017CB
  • 221200Z 29009G15MPS 8000 -SHRASN SCT014CB BKN014 01/M01 Q1021 R31/290055 TEMPO 29013G22MPS 1400 SHSNRA BKN003 BKN017CB
  • 221130Z 28010G15MPS 3500 -SHRASN SCT032CB BKN032 01/M02 Q1021 R31/D TEMPO 29013G22MPS 1400 SHSNRA BKN003 BKN017CB
  • 221100Z 29010G16MPS 9000 -SHRASN SCT026CB BKN026 02/M03 Q1022 R31/CLRD// TEMPO 29013G22MPS
  • 221042Z 29011G18MPS 9999 BKN026 03/M05 Q1021 R31/D TEMPO 25010G16MPS
  • 221030Z 28009G14MPS 9999 BKN025 03/M06 Q1022 R31/CLRD// TEMPO 25010G16MPS

TAF AMD TAF UKLL
Valide du 22 à 12h jusqu'au 23 à 12h UTC


221241Z 2212/2312 27008G13MPS 3000 BR SCT004 BKN007 SCT020CB TXM01/2213Z TNM03/2304Z
TEMPO 2212/2218 29010G17MPS 1100 FZRA SHSN BKN003 BKN017CB
BECMG 2218/2219 30007G14MPS
TEMPO 2219/2312 1100 SHSN BKN003 BKN020CB



MET'MAP, la Météo Aéronautique d'un coup d'oeil ! - Copyright ORBIFLY Décembre 2007 - Disclaimer

ORBIFLY MET'MAP TEAM :

Programmation & Développement : Alexandra Zaïnal
Sur une idée originale de : Baudouin d'Aumeries
Assistance à la programmation : Marc-Olivier Méhu
Soutien technique & logistique : Manuel Goepfert

Contact : metmap@orbifly.com




SOURCES & CREDITS :

   NOAA